sensor_id;sensor_type;location;lat;lon;timestamp;P1;durP1;ratioP1;P2;durP2;ratioP2
2161;SDS011;1087;50.226;8.682;2023-02-18T00:01:24;2.70;;;2.10;;
2161;SDS011;1087;50.226;8.682;2023-02-18T00:03:49;1.60;;;1.50;;
2161;SDS011;1087;50.226;8.682;2023-02-18T00:06:20;2.50;;;1.70;;
2161;SDS011;1087;50.226;8.682;2023-02-18T00:08:54;1.80;;;1.70;;
2161;SDS011;1087;50.226;8.682;2023-02-18T00:11:23;1.90;;;1.57;;
2161;SDS011;1087;50.226;8.682;2023-02-18T00:13:53;1.83;;;1.60;;
2161;SDS011;1087;50.226;8.682;2023-02-18T00:16:20;1.60;;;1.50;;
2161;SDS011;1087;50.226;8.682;2023-02-18T00:18:47;1.90;;;1.80;;
2161;SDS011;1087;50.226;8.682;2023-02-18T00:21:12;2.20;;;1.90;;
2161;SDS011;1087;50.226;8.682;2023-02-18T00:23:38;2.13;;;2.03;;
2161;SDS011;1087;50.226;8.682;2023-02-18T00:26:05;2.97;;;2.73;;
2161;SDS011;1087;50.226;8.682;2023-02-18T00:28:32;3.00;;;2.73;;
2161;SDS011;1087;50.226;8.682;2023-02-18T00:30:58;3.43;;;3.00;;
2161;SDS011;1087;50.226;8.682;2023-02-18T00:33:24;3.17;;;2.90;;
2161;SDS011;1087;50.226;8.682;2023-02-18T00:35:49;3.40;;;3.10;;
2161;SDS011;1087;50.226;8.682;2023-02-18T00:38:15;3.63;;;3.33;;
2161;SDS011;1087;50.226;8.682;2023-02-18T00:40:41;3.33;;;3.03;;
2161;SDS011;1087;50.226;8.682;2023-02-18T00:43:07;3.13;;;2.93;;
2161;SDS011;1087;50.226;8.682;2023-02-18T00:45:33;3.63;;;3.10;;
2161;SDS011;1087;50.226;8.682;2023-02-18T00:47:59;4.33;;;2.57;;
2161;SDS011;1087;50.226;8.682;2023-02-18T00:50:24;2.93;;;2.73;;
2161;SDS011;1087;50.226;8.682;2023-02-18T00:52:50;4.43;;;3.33;;
2161;SDS011;1087;50.226;8.682;2023-02-18T00:55:15;4.03;;;3.63;;
2161;SDS011;1087;50.226;8.682;2023-02-18T00:57:41;2.40;;;2.20;;
2161;SDS011;1087;50.226;8.682;2023-02-18T01:00:07;2.50;;;2.30;;
2161;SDS011;1087;50.226;8.682;2023-02-18T01:02:33;2.20;;;2.00;;
2161;SDS011;1087;50.226;8.682;2023-02-18T01:04:59;3.00;;;2.07;;
2161;SDS011;1087;50.226;8.682;2023-02-18T01:07:24;2.40;;;1.70;;
2161;SDS011;1087;50.226;8.682;2023-02-18T01:09:50;2.70;;;2.30;;
2161;SDS011;1087;50.226;8.682;2023-02-18T01:12:16;1.80;;;1.70;;
2161;SDS011;1087;50.226;8.682;2023-02-18T01:14:42;1.67;;;1.50;;
2161;SDS011;1087;50.226;8.682;2023-02-18T01:17:07;1.97;;;1.37;;
2161;SDS011;1087;50.226;8.682;2023-02-18T01:19:33;2.03;;;1.23;;
2161;SDS011;1087;50.226;8.682;2023-02-18T01:21:59;1.70;;;1.50;;
2161;SDS011;1087;50.226;8.682;2023-02-18T01:24:24;1.63;;;1.50;;
2161;SDS011;1087;50.226;8.682;2023-02-18T01:26:50;2.90;;;1.80;;
2161;SDS011;1087;50.226;8.682;2023-02-18T01:29:15;2.60;;;1.97;;
2161;SDS011;1087;50.226;8.682;2023-02-18T01:31:41;2.13;;;1.93;;
2161;SDS011;1087;50.226;8.682;2023-02-18T01:34:07;2.90;;;2.27;;
2161;SDS011;1087;50.226;8.682;2023-02-18T01:36:32;2.93;;;2.63;;
2161;SDS011;1087;50.226;8.682;2023-02-18T01:38:58;4.07;;;1.60;;
2161;SDS011;1087;50.226;8.682;2023-02-18T01:41:23;1.97;;;1.77;;
2161;SDS011;1087;50.226;8.682;2023-02-18T01:44:09;1.70;;;1.60;;
2161;SDS011;1087;50.226;8.682;2023-02-18T01:46:36;2.30;;;2.10;;
2161;SDS011;1087;50.226;8.682;2023-02-18T01:49:02;2.27;;;2.10;;
2161;SDS011;1087;50.226;8.682;2023-02-18T01:51:29;2.37;;;2.17;;
2161;SDS011;1087;50.226;8.682;2023-02-18T01:53:59;3.20;;;2.90;;
2161;SDS011;1087;50.226;8.682;2023-02-18T01:56:32;3.00;;;2.70;;
2161;SDS011;1087;50.226;8.682;2023-02-18T01:59:03;3.20;;;2.90;;
2161;SDS011;1087;50.226;8.682;2023-02-18T02:01:31;2.90;;;2.70;;
2161;SDS011;1087;50.226;8.682;2023-02-18T02:03:57;2.27;;;2.07;;
2161;SDS011;1087;50.226;8.682;2023-02-18T02:06:24;1.80;;;1.70;;
2161;SDS011;1087;50.226;8.682;2023-02-18T02:08:50;1.70;;;1.60;;
2161;SDS011;1087;50.226;8.682;2023-02-18T02:11:32;1.57;;;1.33;;
2161;SDS011;1087;50.226;8.682;2023-02-18T02:19:48;6.17;;;3.77;;
2161;SDS011;1087;50.226;8.682;2023-02-18T02:39:09;6.67;;;3.80;;
2161;SDS011;1087;50.226;8.682;2023-02-18T02:42:08;1.87;;;1.50;;
2161;SDS011;1087;50.226;8.682;2023-02-18T02:47:25;1.50;;;1.40;;
2161;SDS011;1087;50.226;8.682;2023-02-18T02:50:04;1.50;;;1.40;;
2161;SDS011;1087;50.226;8.682;2023-02-18T02:52:36;1.43;;;1.33;;
2161;SDS011;1087;50.226;8.682;2023-02-18T02:55:10;1.50;;;1.40;;
2161;SDS011;1087;50.226;8.682;2023-02-18T02:57:41;1.53;;;1.30;;
2161;SDS011;1087;50.226;8.682;2023-02-18T03:00:09;1.60;;;1.30;;
2161;SDS011;1087;50.226;8.682;2023-02-18T03:16:22;1.80;;;1.67;;
2161;SDS011;1087;50.226;8.682;2023-02-18T03:21:56;1.27;;;1.17;;
2161;SDS011;1087;50.226;8.682;2023-02-18T03:24:31;2.00;;;1.30;;
2161;SDS011;1087;50.226;8.682;2023-02-18T03:27:12;1.30;;;1.20;;
2161;SDS011;1087;50.226;8.682;2023-02-18T03:29:52;1.63;;;1.27;;
2161;SDS011;1087;50.226;8.682;2023-02-18T03:32:23;2.30;;;1.20;;
2161;SDS011;1087;50.226;8.682;2023-02-18T03:34:52;1.30;;;1.20;;
2161;SDS011;1087;50.226;8.682;2023-02-18T03:37:22;1.20;;;1.10;;
2161;SDS011;1087;50.226;8.682;2023-02-18T03:39:49;1.27;;;1.10;;
2161;SDS011;1087;50.226;8.682;2023-02-18T03:42:18;1.27;;;1.17;;
2161;SDS011;1087;50.226;8.682;2023-02-18T03:44:44;2.20;;;1.70;;
2161;SDS011;1087;50.226;8.682;2023-02-18T03:47:10;4.40;;;2.50;;
2161;SDS011;1087;50.226;8.682;2023-02-18T03:49:36;3.10;;;1.70;;
2161;SDS011;1087;50.226;8.682;2023-02-18T03:52:01;3.70;;;1.80;;
2161;SDS011;1087;50.226;8.682;2023-02-18T03:54:27;3.10;;;1.90;;
2161;SDS011;1087;50.226;8.682;2023-02-18T03:56:53;2.13;;;1.60;;
2161;SDS011;1087;50.226;8.682;2023-02-18T03:59:18;2.53;;;2.10;;
2161;SDS011;1087;50.226;8.682;2023-02-18T04:01:44;3.00;;;1.93;;
2161;SDS011;1087;50.226;8.682;2023-02-18T04:04:09;1.80;;;1.70;;
2161;SDS011;1087;50.226;8.682;2023-02-18T04:06:35;2.07;;;1.90;;
2161;SDS011;1087;50.226;8.682;2023-02-18T04:09:00;2.60;;;2.40;;
2161;SDS011;1087;50.226;8.682;2023-02-18T04:11:26;2.60;;;1.80;;
2161;SDS011;1087;50.226;8.682;2023-02-18T04:13:52;3.90;;;2.23;;
2161;SDS011;1087;50.226;8.682;2023-02-18T04:16:17;4.97;;;2.00;;
2161;SDS011;1087;50.226;8.682;2023-02-18T04:18:43;1.90;;;1.63;;
2161;SDS011;1087;50.226;8.682;2023-02-18T04:21:08;1.80;;;1.50;;
2161;SDS011;1087;50.226;8.682;2023-02-18T04:23:34;1.43;;;1.33;;
2161;SDS011;1087;50.226;8.682;2023-02-18T04:25:59;1.87;;;1.50;;
2161;SDS011;1087;50.226;8.682;2023-02-18T04:28:25;2.90;;;1.20;;
2161;SDS011;1087;50.226;8.682;2023-02-18T04:30:50;2.53;;;1.60;;
2161;SDS011;1087;50.226;8.682;2023-02-18T04:33:16;2.30;;;1.87;;
2161;SDS011;1087;50.226;8.682;2023-02-18T04:35:41;4.43;;;1.60;;
2161;SDS011;1087;50.226;8.682;2023-02-18T04:38:07;2.13;;;1.67;;
2161;SDS011;1087;50.226;8.682;2023-02-18T04:40:33;1.30;;;1.10;;
2161;SDS011;1087;50.226;8.682;2023-02-18T04:42:59;1.80;;;1.70;;
2161;SDS011;1087;50.226;8.682;2023-02-18T04:45:25;1.80;;;1.70;;
2161;SDS011;1087;50.226;8.682;2023-02-18T04:47:51;1.73;;;1.60;;
2161;SDS011;1087;50.226;8.682;2023-02-18T04:50:18;3.53;;;1.80;;
2161;SDS011;1087;50.226;8.682;2023-02-18T04:52:45;3.40;;;2.33;;
2161;SDS011;1087;50.226;8.682;2023-02-18T04:55:11;1.90;;;1.50;;
2161;SDS011;1087;50.226;8.682;2023-02-18T04:57:36;1.97;;;1.67;;
2161;SDS011;1087;50.226;8.682;2023-02-18T05:00:03;2.80;;;1.53;;
2161;SDS011;1087;50.226;8.682;2023-02-18T05:02:31;1.63;;;1.47;;
2161;SDS011;1087;50.226;8.682;2023-02-18T05:04:57;2.43;;;1.80;;
2161;SDS011;1087;50.226;8.682;2023-02-18T05:07:22;2.10;;;1.90;;
2161;SDS011;1087;50.226;8.682;2023-02-18T05:09:48;2.10;;;1.83;;
2161;SDS011;1087;50.226;8.682;2023-02-18T05:12:13;1.60;;;1.50;;
2161;SDS011;1087;50.226;8.682;2023-02-18T05:14:39;2.10;;;1.67;;
2161;SDS011;1087;50.226;8.682;2023-02-18T05:17:04;2.10;;;1.27;;
2161;SDS011;1087;50.226;8.682;2023-02-18T05:19:30;2.13;;;1.40;;
2161;SDS011;1087;50.226;8.682;2023-02-18T05:21:55;1.83;;;1.53;;
2161;SDS011;1087;50.226;8.682;2023-02-18T05:24:21;2.00;;;1.80;;
2161;SDS011;1087;50.226;8.682;2023-02-18T05:26:47;2.07;;;1.93;;
2161;SDS011;1087;50.226;8.682;2023-02-18T05:29:12;2.73;;;2.00;;
2161;SDS011;1087;50.226;8.682;2023-02-18T05:31:38;2.30;;;2.10;;
2161;SDS011;1087;50.226;8.682;2023-02-18T05:34:03;2.60;;;2.20;;
2161;SDS011;1087;50.226;8.682;2023-02-18T05:36:29;3.27;;;2.60;;
2161;SDS011;1087;50.226;8.682;2023-02-18T05:38:55;4.83;;;2.80;;
2161;SDS011;1087;50.226;8.682;2023-02-18T05:41:20;4.77;;;3.00;;
2161;SDS011;1087;50.226;8.682;2023-02-18T05:43:46;4.43;;;2.70;;
2161;SDS011;1087;50.226;8.682;2023-02-18T05:46:30;3.20;;;2.53;;
2161;SDS011;1087;50.226;8.682;2023-02-18T05:48:55;3.40;;;2.77;;
2161;SDS011;1087;50.226;8.682;2023-02-18T05:51:21;3.23;;;2.70;;
2161;SDS011;1087;50.226;8.682;2023-02-18T05:53:46;2.50;;;2.30;;
2161;SDS011;1087;50.226;8.682;2023-02-18T05:56:12;4.67;;;3.07;;
2161;SDS011;1087;50.226;8.682;2023-02-18T05:58:37;3.50;;;2.13;;
2161;SDS011;1087;50.226;8.682;2023-02-18T06:01:03;2.60;;;2.40;;
2161;SDS011;1087;50.226;8.682;2023-02-18T06:03:29;2.50;;;2.30;;
2161;SDS011;1087;50.226;8.682;2023-02-18T06:05:55;2.27;;;1.60;;
2161;SDS011;1087;50.226;8.682;2023-02-18T06:08:21;1.57;;;1.33;;
2161;SDS011;1087;50.226;8.682;2023-02-18T06:10:46;2.43;;;2.10;;
2161;SDS011;1087;50.226;8.682;2023-02-18T06:13:12;2.20;;;1.80;;
2161;SDS011;1087;50.226;8.682;2023-02-18T06:15:38;2.00;;;1.90;;
2161;SDS011;1087;50.226;8.682;2023-02-18T06:18:04;2.17;;;1.80;;
2161;SDS011;1087;50.226;8.682;2023-02-18T06:20:30;2.30;;;1.73;;
2161;SDS011;1087;50.226;8.682;2023-02-18T06:22:56;1.77;;;1.67;;
2161;SDS011;1087;50.226;8.682;2023-02-18T06:25:22;4.43;;;1.83;;
2161;SDS011;1087;50.226;8.682;2023-02-18T06:27:47;3.70;;;2.30;;
2161;SDS011;1087;50.226;8.682;2023-02-18T06:30:13;1.80;;;1.60;;
2161;SDS011;1087;50.226;8.682;2023-02-18T06:32:38;2.00;;;1.90;;
2161;SDS011;1087;50.226;8.682;2023-02-18T06:35:04;2.10;;;1.90;;
2161;SDS011;1087;50.226;8.682;2023-02-18T06:37:30;2.53;;;2.10;;
2161;SDS011;1087;50.226;8.682;2023-02-18T06:39:56;3.77;;;2.00;;
2161;SDS011;1087;50.226;8.682;2023-02-18T06:42:21;2.47;;;1.90;;
2161;SDS011;1087;50.226;8.682;2023-02-18T06:44:47;2.03;;;1.80;;
2161;SDS011;1087;50.226;8.682;2023-02-18T06:47:12;2.27;;;2.07;;
2161;SDS011;1087;50.226;8.682;2023-02-18T06:49:38;2.40;;;2.20;;
2161;SDS011;1087;50.226;8.682;2023-02-18T06:52:04;2.60;;;2.40;;
2161;SDS011;1087;50.226;8.682;2023-02-18T06:54:30;2.30;;;1.80;;
2161;SDS011;1087;50.226;8.682;2023-02-18T06:56:56;2.30;;;2.10;;
2161;SDS011;1087;50.226;8.682;2023-02-18T06:59:22;3.50;;;2.40;;
2161;SDS011;1087;50.226;8.682;2023-02-18T07:01:47;2.60;;;2.40;;
2161;SDS011;1087;50.226;8.682;2023-02-18T07:04:13;3.00;;;2.40;;
2161;SDS011;1087;50.226;8.682;2023-02-18T07:06:38;3.00;;;2.80;;
2161;SDS011;1087;50.226;8.682;2023-02-18T07:09:04;2.60;;;2.40;;
2161;SDS011;1087;50.226;8.682;2023-02-18T07:11:30;3.23;;;2.57;;
2161;SDS011;1087;50.226;8.682;2023-02-18T07:13:55;4.20;;;2.10;;
2161;SDS011;1087;50.226;8.682;2023-02-18T07:16:21;2.97;;;2.60;;
2161;SDS011;1087;50.226;8.682;2023-02-18T07:18:46;2.87;;;2.67;;
2161;SDS011;1087;50.226;8.682;2023-02-18T07:21:12;2.50;;;2.30;;
2161;SDS011;1087;50.226;8.682;2023-02-18T07:23:38;3.07;;;2.80;;
2161;SDS011;1087;50.226;8.682;2023-02-18T07:26:04;2.90;;;2.60;;
2161;SDS011;1087;50.226;8.682;2023-02-18T07:28:34;3.37;;;2.93;;
2161;SDS011;1087;50.226;8.682;2023-02-18T07:31:00;4.07;;;3.67;;
2161;SDS011;1087;50.226;8.682;2023-02-18T07:33:26;4.07;;;3.70;;
2161;SDS011;1087;50.226;8.682;2023-02-18T07:35:53;4.03;;;3.57;;
2161;SDS011;1087;50.226;8.682;2023-02-18T07:38:19;3.67;;;3.37;;
2161;SDS011;1087;50.226;8.682;2023-02-18T07:40:45;4.10;;;3.80;;
2161;SDS011;1087;50.226;8.682;2023-02-18T07:43:11;3.63;;;3.33;;
2161;SDS011;1087;50.226;8.682;2023-02-18T07:45:37;4.07;;;3.63;;
2161;SDS011;1087;50.226;8.682;2023-02-18T07:48:03;5.03;;;4.13;;
2161;SDS011;1087;50.226;8.682;2023-02-18T07:50:29;3.70;;;3.40;;
2161;SDS011;1087;50.226;8.682;2023-02-18T07:52:59;4.00;;;3.70;;
2161;SDS011;1087;50.226;8.682;2023-02-18T07:55:25;4.20;;;3.80;;
2161;SDS011;1087;50.226;8.682;2023-02-18T07:58:10;4.13;;;3.47;;
2161;SDS011;1087;50.226;8.682;2023-02-18T08:00:36;3.90;;;3.57;;
2161;SDS011;1087;50.226;8.682;2023-02-18T08:03:02;3.70;;;2.80;;
2161;SDS011;1087;50.226;8.682;2023-02-18T08:05:27;4.20;;;3.03;;
2161;SDS011;1087;50.226;8.682;2023-02-18T08:07:53;3.57;;;3.27;;
2161;SDS011;1087;50.226;8.682;2023-02-18T08:10:18;3.10;;;2.90;;
2161;SDS011;1087;50.226;8.682;2023-02-18T08:12:44;3.60;;;2.80;;
2161;SDS011;1087;50.226;8.682;2023-02-18T08:15:10;2.57;;;2.37;;
2161;SDS011;1087;50.226;8.682;2023-02-18T08:17:38;2.83;;;2.60;;
2161;SDS011;1087;50.226;8.682;2023-02-18T08:20:04;2.37;;;2.17;;
2161;SDS011;1087;50.226;8.682;2023-02-18T08:22:30;2.33;;;2.13;;
2161;SDS011;1087;50.226;8.682;2023-02-18T08:24:55;2.40;;;2.20;;
2161;SDS011;1087;50.226;8.682;2023-02-18T08:27:21;2.90;;;2.60;;
2161;SDS011;1087;50.226;8.682;2023-02-18T08:29:47;2.77;;;2.57;;
2161;SDS011;1087;50.226;8.682;2023-02-18T08:32:13;4.00;;;3.23;;
2161;SDS011;1087;50.226;8.682;2023-02-18T08:34:39;2.87;;;2.57;;
2161;SDS011;1087;50.226;8.682;2023-02-18T08:37:04;3.00;;;2.50;;
2161;SDS011;1087;50.226;8.682;2023-02-18T08:39:33;3.10;;;2.80;;
2161;SDS011;1087;50.226;8.682;2023-02-18T08:41:59;2.97;;;2.67;;
2161;SDS011;1087;50.226;8.682;2023-02-18T08:44:25;2.63;;;2.43;;
2161;SDS011;1087;50.226;8.682;2023-02-18T08:46:51;3.40;;;3.10;;
2161;SDS011;1087;50.226;8.682;2023-02-18T08:49:17;5.03;;;3.13;;
2161;SDS011;1087;50.226;8.682;2023-02-18T08:51:44;3.20;;;3.00;;
2161;SDS011;1087;50.226;8.682;2023-02-18T08:54:13;3.40;;;3.10;;
2161;SDS011;1087;50.226;8.682;2023-02-18T08:56:39;3.70;;;3.10;;
2161;SDS011;1087;50.226;8.682;2023-02-18T08:59:04;3.27;;;2.97;;
2161;SDS011;1087;50.226;8.682;2023-02-18T09:01:30;3.53;;;2.90;;
2161;SDS011;1087;50.226;8.682;2023-02-18T09:03:56;4.47;;;2.90;;
2161;SDS011;1087;50.226;8.682;2023-02-18T09:06:23;3.57;;;3.27;;
2161;SDS011;1087;50.226;8.682;2023-02-18T09:08:48;3.93;;;3.53;;
2161;SDS011;1087;50.226;8.682;2023-02-18T09:11:14;3.23;;;2.93;;
2161;SDS011;1087;50.226;8.682;2023-02-18T09:13:40;3.67;;;2.80;;
2161;SDS011;1087;50.226;8.682;2023-02-18T09:16:07;3.53;;;3.00;;
2161;SDS011;1087;50.226;8.682;2023-02-18T09:18:38;3.37;;;2.73;;
2161;SDS011;1087;50.226;8.682;2023-02-18T09:21:05;3.07;;;2.77;;
2161;SDS011;1087;50.226;8.682;2023-02-18T09:23:33;3.43;;;3.20;;
2161;SDS011;1087;50.226;8.682;2023-02-18T09:25:59;2.83;;;2.63;;
2161;SDS011;1087;50.226;8.682;2023-02-18T09:28:28;3.33;;;3.03;;
2161;SDS011;1087;50.226;8.682;2023-02-18T09:30:53;2.90;;;2.70;;
2161;SDS011;1087;50.226;8.682;2023-02-18T09:33:19;2.63;;;2.43;;
2161;SDS011;1087;50.226;8.682;2023-02-18T09:35:44;3.80;;;2.60;;
2161;SDS011;1087;50.226;8.682;2023-02-18T09:38:11;1.90;;;1.80;;
2161;SDS011;1087;50.226;8.682;2023-02-18T09:40:39;2.00;;;1.80;;
2161;SDS011;1087;50.226;8.682;2023-02-18T09:44:10;2.40;;;2.17;;
2161;SDS011;1087;50.226;8.682;2023-02-18T09:46:13;4.03;;;2.20;;
2161;SDS011;1087;50.226;8.682;2023-02-18T09:48:51;3.80;;;2.60;;
2161;SDS011;1087;50.226;8.682;2023-02-18T09:51:17;2.43;;;2.23;;
2161;SDS011;1087;50.226;8.682;2023-02-18T09:53:44;2.63;;;2.43;;
2161;SDS011;1087;50.226;8.682;2023-02-18T09:56:14;2.20;;;2.00;;
2161;SDS011;1087;50.226;8.682;2023-02-18T09:58:46;2.27;;;2.07;;
2161;SDS011;1087;50.226;8.682;2023-02-18T10:03:48;2.23;;;2.13;;
2161;SDS011;1087;50.226;8.682;2023-02-18T10:06:19;2.30;;;2.03;;
2161;SDS011;1087;50.226;8.682;2023-02-18T10:08:49;2.57;;;1.90;;
2161;SDS011;1087;50.226;8.682;2023-02-18T10:11:27;1.60;;;1.50;;
2161;SDS011;1087;50.226;8.682;2023-02-18T10:13:55;2.23;;;2.00;;
2161;SDS011;1087;50.226;8.682;2023-02-18T10:16:21;2.00;;;1.80;;
2161;SDS011;1087;50.226;8.682;2023-02-18T10:18:49;2.57;;;2.00;;
2161;SDS011;1087;50.226;8.682;2023-02-18T10:21:20;1.93;;;1.83;;
2161;SDS011;1087;50.226;8.682;2023-02-18T10:26:21;2.90;;;1.60;;
2161;SDS011;1087;50.226;8.682;2023-02-18T10:28:47;1.97;;;1.67;;
2161;SDS011;1087;50.226;8.682;2023-02-18T10:31:17;2.37;;;1.40;;
2161;SDS011;1087;50.226;8.682;2023-02-18T10:36:28;2.97;;;1.67;;
2161;SDS011;1087;50.226;8.682;2023-02-18T10:52:16;1.40;;;1.30;;
2161;SDS011;1087;50.226;8.682;2023-02-18T10:54:50;1.10;;;0.90;;
2161;SDS011;1087;50.226;8.682;2023-02-18T10:57:22;1.43;;;1.10;;
2161;SDS011;1087;50.226;8.682;2023-02-18T11:02:38;1.53;;;1.40;;
2161;SDS011;1087;50.226;8.682;2023-02-18T11:05:11;1.20;;;1.10;;
2161;SDS011;1087;50.226;8.682;2023-02-18T11:07:52;1.20;;;1.10;;
2161;SDS011;1087;50.226;8.682;2023-02-18T11:10:25;1.13;;;1.00;;
2161;SDS011;1087;50.226;8.682;2023-02-18T11:15:26;1.53;;;1.10;;
2161;SDS011;1087;50.226;8.682;2023-02-18T11:17:53;1.30;;;1.07;;
2161;SDS011;1087;50.226;8.682;2023-02-18T11:22:50;1.20;;;0.93;;
2161;SDS011;1087;50.226;8.682;2023-02-18T11:25:21;1.10;;;1.00;;
2161;SDS011;1087;50.226;8.682;2023-02-18T11:27:55;1.23;;;1.10;;
2161;SDS011;1087;50.226;8.682;2023-02-18T11:32:48;1.60;;;1.50;;
2161;SDS011;1087;50.226;8.682;2023-02-18T11:35:20;1.40;;;1.10;;
2161;SDS011;1087;50.226;8.682;2023-02-18T11:37:48;2.07;;;1.33;;
2161;SDS011;1087;50.226;8.682;2023-02-18T11:40:25;3.13;;;1.20;;
2161;SDS011;1087;50.226;8.682;2023-02-18T11:43:02;1.70;;;1.00;;
2161;SDS011;1087;50.226;8.682;2023-02-18T11:45:29;2.30;;;1.10;;
2161;SDS011;1087;50.226;8.682;2023-02-18T11:47:58;3.33;;;1.20;;
2161;SDS011;1087;50.226;8.682;2023-02-18T11:50:25;1.23;;;1.13;;
2161;SDS011;1087;50.226;8.682;2023-02-18T11:52:54;1.30;;;1.00;;
2161;SDS011;1087;50.226;8.682;2023-02-18T11:55:25;2.97;;;1.50;;
2161;SDS011;1087;50.226;8.682;2023-02-18T12:03:27;1.80;;;1.40;;
2161;SDS011;1087;50.226;8.682;2023-02-18T12:06:00;1.60;;;1.30;;
2161;SDS011;1087;50.226;8.682;2023-02-18T12:08:30;2.67;;;1.40;;
2161;SDS011;1087;50.226;8.682;2023-02-18T12:11:00;2.10;;;1.10;;
2161;SDS011;1087;50.226;8.682;2023-02-18T12:19:02;1.53;;;1.43;;
2161;SDS011;1087;50.226;8.682;2023-02-18T12:24:13;3.90;;;1.67;;
2161;SDS011;1087;50.226;8.682;2023-02-18T12:29:31;2.60;;;1.50;;
2161;SDS011;1087;50.226;8.682;2023-02-18T12:38:04;3.43;;;1.40;;
2161;SDS011;1087;50.226;8.682;2023-02-18T12:40:51;4.40;;;1.80;;
2161;SDS011;1087;50.226;8.682;2023-02-18T12:47:01;3.80;;;1.77;;
2161;SDS011;1087;50.226;8.682;2023-02-18T12:55:36;3.33;;;1.50;;
2161;SDS011;1087;50.226;8.682;2023-02-18T13:06:47;2.03;;;1.83;;
2161;SDS011;1087;50.226;8.682;2023-02-18T13:12:44;2.13;;;1.93;;
2161;SDS011;1087;50.226;8.682;2023-02-18T13:15:22;2.47;;;2.27;;
2161;SDS011;1087;50.226;8.682;2023-02-18T13:17:59;2.23;;;1.67;;
2161;SDS011;1087;50.226;8.682;2023-02-18T13:20:40;3.40;;;2.20;;
2161;SDS011;1087;50.226;8.682;2023-02-18T13:23:17;4.77;;;2.53;;
2161;SDS011;1087;50.226;8.682;2023-02-18T13:25:45;2.10;;;1.90;;
2161;SDS011;1087;50.226;8.682;2023-02-18T13:28:21;2.73;;;2.53;;
2161;SDS011;1087;50.226;8.682;2023-02-18T13:31:12;3.70;;;2.40;;
2161;SDS011;1087;50.226;8.682;2023-02-18T13:33:43;5.37;;;2.13;;
2161;SDS011;1087;50.226;8.682;2023-02-18T13:36:32;2.10;;;1.90;;
2161;SDS011;1087;50.226;8.682;2023-02-18T13:39:05;4.23;;;1.83;;
2161;SDS011;1087;50.226;8.682;2023-02-18T13:41:43;2.30;;;2.00;;
2161;SDS011;1087;50.226;8.682;2023-02-18T13:46:55;2.40;;;2.20;;
2161;SDS011;1087;50.226;8.682;2023-02-18T13:49:25;1.97;;;1.87;;
2161;SDS011;1087;50.226;8.682;2023-02-18T13:51:56;2.20;;;1.93;;
2161;SDS011;1087;50.226;8.682;2023-02-18T13:54:24;3.17;;;1.70;;
2161;SDS011;1087;50.226;8.682;2023-02-18T13:56:54;1.87;;;1.77;;
2161;SDS011;1087;50.226;8.682;2023-02-18T13:59:35;3.40;;;2.00;;
2161;SDS011;1087;50.226;8.682;2023-02-18T14:07:18;2.57;;;2.33;;
2161;SDS011;1087;50.226;8.682;2023-02-18T14:09:56;2.43;;;2.23;;
2161;SDS011;1087;50.226;8.682;2023-02-18T14:15:02;2.83;;;2.40;;
2161;SDS011;1087;50.226;8.682;2023-02-18T14:20:32;3.00;;;2.60;;
2161;SDS011;1087;50.226;8.682;2023-02-18T14:25:38;2.77;;;2.47;;
2161;SDS011;1087;50.226;8.682;2023-02-18T14:33:36;3.23;;;2.27;;
2161;SDS011;1087;50.226;8.682;2023-02-18T14:36:31;2.67;;;2.47;;
2161;SDS011;1087;50.226;8.682;2023-02-18T14:44:57;2.40;;;2.20;;
2161;SDS011;1087;50.226;8.682;2023-02-18T14:50:19;2.47;;;2.27;;
2161;SDS011;1087;50.226;8.682;2023-02-18T14:52:53;2.40;;;2.17;;
2161;SDS011;1087;50.226;8.682;2023-02-18T14:55:26;4.50;;;2.20;;
2161;SDS011;1087;50.226;8.682;2023-02-18T14:57:56;2.30;;;2.10;;
2161;SDS011;1087;50.226;8.682;2023-02-18T15:00:26;3.20;;;2.47;;
2161;SDS011;1087;50.226;8.682;2023-02-18T15:02:56;2.43;;;2.23;;
2161;SDS011;1087;50.226;8.682;2023-02-18T15:05:24;4.87;;;3.23;;
2161;SDS011;1087;50.226;8.682;2023-02-18T15:07:58;3.03;;;1.80;;
2161;SDS011;1087;50.226;8.682;2023-02-18T15:10:27;2.33;;;1.77;;
2161;SDS011;1087;50.226;8.682;2023-02-18T15:12:56;2.67;;;2.23;;
2161;SDS011;1087;50.226;8.682;2023-02-18T15:15:22;2.90;;;2.07;;
2161;SDS011;1087;50.226;8.682;2023-02-18T15:17:49;2.30;;;2.10;;
2161;SDS011;1087;50.226;8.682;2023-02-18T15:20:15;2.27;;;2.00;;
2161;SDS011;1087;50.226;8.682;2023-02-18T15:22:41;3.23;;;2.40;;
2161;SDS011;1087;50.226;8.682;2023-02-18T15:25:09;2.40;;;2.13;;
2161;SDS011;1087;50.226;8.682;2023-02-18T15:27:37;2.70;;;2.03;;
2161;SDS011;1087;50.226;8.682;2023-02-18T15:30:12;3.10;;;2.80;;
2161;SDS011;1087;50.226;8.682;2023-02-18T15:32:51;2.73;;;1.63;;
2161;SDS011;1087;50.226;8.682;2023-02-18T15:35:19;1.80;;;1.70;;
2161;SDS011;1087;50.226;8.682;2023-02-18T15:37:51;1.90;;;1.70;;
2161;SDS011;1087;50.226;8.682;2023-02-18T15:40:19;2.17;;;1.80;;
2161;SDS011;1087;50.226;8.682;2023-02-18T15:42:49;2.50;;;2.20;;
2161;SDS011;1087;50.226;8.682;2023-02-18T15:45:17;1.80;;;1.60;;
2161;SDS011;1087;50.226;8.682;2023-02-18T15:47:49;2.00;;;1.80;;
2161;SDS011;1087;50.226;8.682;2023-02-18T15:50:25;5.00;;;4.50;;
2161;SDS011;1087;50.226;8.682;2023-02-18T15:52:54;2.00;;;1.80;;
2161;SDS011;1087;50.226;8.682;2023-02-18T15:55:41;1.70;;;1.60;;
2161;SDS011;1087;50.226;8.682;2023-02-18T15:58:15;1.40;;;1.30;;
2161;SDS011;1087;50.226;8.682;2023-02-18T16:00:49;1.70;;;1.27;;
2161;SDS011;1087;50.226;8.682;2023-02-18T16:03:25;1.30;;;1.20;;
2161;SDS011;1087;50.226;8.682;2023-02-18T16:06:09;2.00;;;1.20;;
2161;SDS011;1087;50.226;8.682;2023-02-18T16:08:59;1.43;;;1.10;;
2161;SDS011;1087;50.226;8.682;2023-02-18T16:11:46;1.10;;;1.03;;
2161;SDS011;1087;50.226;8.682;2023-02-18T16:14:22;1.93;;;1.37;;
2161;SDS011;1087;50.226;8.682;2023-02-18T16:16:59;2.07;;;1.40;;
2161;SDS011;1087;50.226;8.682;2023-02-18T16:19:53;1.47;;;1.30;;
2161;SDS011;1087;50.226;8.682;2023-02-18T16:24:59;1.57;;;1.30;;
2161;SDS011;1087;50.226;8.682;2023-02-18T16:27:32;1.20;;;1.10;;
2161;SDS011;1087;50.226;8.682;2023-02-18T16:30:05;1.10;;;1.00;;
2161;SDS011;1087;50.226;8.682;2023-02-18T16:32:39;4.03;;;1.43;;
2161;SDS011;1087;50.226;8.682;2023-02-18T16:35:05;1.60;;;1.43;;
2161;SDS011;1087;50.226;8.682;2023-02-18T16:37:31;1.80;;;1.30;;
2161;SDS011;1087;50.226;8.682;2023-02-18T16:40:03;1.20;;;1.10;;
2161;SDS011;1087;50.226;8.682;2023-02-18T16:42:46;1.30;;;1.20;;
2161;SDS011;1087;50.226;8.682;2023-02-18T16:45:12;1.33;;;1.23;;
2161;SDS011;1087;50.226;8.682;2023-02-18T16:47:38;2.10;;;1.43;;
2161;SDS011;1087;50.226;8.682;2023-02-18T16:50:04;2.17;;;1.00;;
2161;SDS011;1087;50.226;8.682;2023-02-18T16:52:31;3.50;;;1.60;;
2161;SDS011;1087;50.226;8.682;2023-02-18T16:54:56;1.63;;;1.33;;
2161;SDS011;1087;50.226;8.682;2023-02-18T16:57:22;1.60;;;1.50;;
2161;SDS011;1087;50.226;8.682;2023-02-18T16:59:47;2.23;;;1.50;;
2161;SDS011;1087;50.226;8.682;2023-02-18T17:02:17;1.53;;;1.43;;
2161;SDS011;1087;50.226;8.682;2023-02-18T17:04:44;1.90;;;1.53;;
2161;SDS011;1087;50.226;8.682;2023-02-18T17:07:11;2.43;;;1.33;;
2161;SDS011;1087;50.226;8.682;2023-02-18T17:09:37;1.27;;;1.17;;
2161;SDS011;1087;50.226;8.682;2023-02-18T17:12:03;3.67;;;1.40;;
2161;SDS011;1087;50.226;8.682;2023-02-18T17:14:29;1.57;;;1.43;;
2161;SDS011;1087;50.226;8.682;2023-02-18T17:16:55;3.33;;;1.40;;
2161;SDS011;1087;50.226;8.682;2023-02-18T17:19:21;1.70;;;1.40;;
2161;SDS011;1087;50.226;8.682;2023-02-18T17:21:47;1.23;;;1.13;;
2161;SDS011;1087;50.226;8.682;2023-02-18T17:24:13;1.97;;;1.50;;
2161;SDS011;1087;50.226;8.682;2023-02-18T17:26:41;2.07;;;1.30;;
2161;SDS011;1087;50.226;8.682;2023-02-18T17:29:06;3.10;;;1.70;;
2161;SDS011;1087;50.226;8.682;2023-02-18T17:31:35;1.67;;;1.27;;
2161;SDS011;1087;50.226;8.682;2023-02-18T17:34:04;1.40;;;1.30;;
2161;SDS011;1087;50.226;8.682;2023-02-18T17:36:31;1.50;;;1.40;;
2161;SDS011;1087;50.226;8.682;2023-02-18T17:38:57;1.97;;;1.50;;
2161;SDS011;1087;50.226;8.682;2023-02-18T17:41:23;2.30;;;2.10;;
2161;SDS011;1087;50.226;8.682;2023-02-18T17:43:49;1.80;;;1.50;;
2161;SDS011;1087;50.226;8.682;2023-02-18T17:46:16;2.40;;;2.20;;
2161;SDS011;1087;50.226;8.682;2023-02-18T17:48:43;1.60;;;1.50;;
2161;SDS011;1087;50.226;8.682;2023-02-18T17:51:14;5.20;;;3.80;;
2161;SDS011;1087;50.226;8.682;2023-02-18T17:53:48;3.00;;;2.70;;
2161;SDS011;1087;50.226;8.682;2023-02-18T17:56:13;2.20;;;2.00;;